createdAt,value
2018-04-02T00:01:57.037Z,79.20
2018-04-02T00:07:01.741Z,79.80
2018-04-02T00:12:05.646Z,79.70
2018-04-02T00:17:09.735Z,79.50
2018-04-02T00:22:13.573Z,79.40
2018-04-02T00:27:16.374Z,79.30
2018-04-02T00:32:19.219Z,79.20
2018-04-02T00:37:22.400Z,79.30
2018-04-02T00:42:25.422Z,79.90
2018-04-02T00:47:28.398Z,80.20
2018-04-02T00:52:31.176Z,79.60
2018-04-02T00:57:35.060Z,80.10
2018-04-02T01:02:37.920Z,80.50
2018-04-02T01:07:40.752Z,80.60
2018-04-02T01:12:43.849Z,79.80
2018-04-02T01:17:47.033Z,80.00
2018-04-02T01:22:50.394Z,80.50
2018-04-02T01:27:53.354Z,80.40
2018-04-02T01:32:57.204Z,80.40
2018-04-02T01:38:00.766Z,80.40
2018-04-02T01:43:04.063Z,80.10
2018-04-02T01:48:09.233Z,80.40
2018-04-02T01:53:12.961Z,80.20
2018-04-02T01:58:16.733Z,80.20
2018-04-02T02:03:19.551Z,80.60
2018-04-02T02:08:22.653Z,80.60
2018-04-02T02:13:25.460Z,81.20
2018-04-02T02:18:29.588Z,81.10
2018-04-02T02:23:32.842Z,81.50
2018-04-02T02:28:39.052Z,81.50
2018-04-02T02:33:42.837Z,81.40
2018-04-02T02:38:47.248Z,81.10
2018-04-02T02:43:51.058Z,82.60
2018-04-02T02:48:55.621Z,81.80
2018-04-02T02:53:59.433Z,81.70
2018-04-02T02:59:03.872Z,80.80
2018-04-02T03:04:07.230Z,80.80
2018-04-02T03:09:10.820Z,81.50
2018-04-02T03:14:15.272Z,81.00
2018-04-02T03:19:19.298Z,81.50
2018-04-02T03:24:22.568Z,81.10
2018-04-02T03:29:27.597Z,80.60
2018-04-02T03:34:30.332Z,80.20
2018-04-02T03:39:34.214Z,80.90
2018-04-02T03:44:37.214Z,81.10
2018-04-02T03:49:40.716Z,80.40
2018-04-02T03:54:43.811Z,80.70
2018-04-02T03:59:47.548Z,81.20
2018-04-02T04:04:50.462Z,80.90
2018-04-02T04:09:54.876Z,80.90
2018-04-02T04:14:57.844Z,80.50
2018-04-02T04:20:00.909Z,80.90
2018-04-02T04:25:05.566Z,81.00
2018-04-02T04:30:08.517Z,81.20
2018-04-02T04:35:11.972Z,81.20
2018-04-02T04:40:16.338Z,81.70
2018-04-02T04:45:19.893Z,80.90
2018-04-02T04:50:23.752Z,81.70
2018-04-02T04:55:26.751Z,81.80
2018-04-02T05:00:30.113Z,81.40
2018-04-02T05:05:34.116Z,80.90
2018-04-02T05:10:37.133Z,81.20
2018-04-02T05:15:41.930Z,80.90
2018-04-02T05:20:48.066Z,81.60
2018-04-02T05:30:59.773Z,81.60
2018-04-02T05:36:03.137Z,81.80
2018-04-02T05:41:07.683Z,81.90
2018-04-02T05:46:10.935Z,81.80
2018-04-02T05:51:14.505Z,81.40
2018-04-02T05:56:22.003Z,81.90
2018-04-02T06:01:26.316Z,81.30
2018-04-02T06:06:30.858Z,81.60
2018-04-02T06:11:34.506Z,81.20
2018-04-02T06:16:38.027Z,81.60
2018-04-02T06:21:41.511Z,81.90
2018-04-02T06:26:45.943Z,81.90
2018-04-02T06:31:51.565Z,82.30
2018-04-02T06:37:00.837Z,82.40
2018-04-02T06:42:05.068Z,82.00
2018-04-02T06:47:07.869Z,81.80
2018-04-02T06:52:11.824Z,81.80
2018-04-02T06:57:14.703Z,81.50
2018-04-02T07:02:18.255Z,81.10
2018-04-02T07:07:21.543Z,81.20
2018-04-02T07:12:25.098Z,80.50
2018-04-02T07:17:29.107Z,79.60
2018-04-02T07:22:33.115Z,79.50
2018-04-02T07:27:37.033Z,78.80
2018-04-02T07:32:40.989Z,77.90
2018-04-02T07:37:43.865Z,77.00
2018-04-02T07:42:47.036Z,76.40
2018-04-02T07:47:50.614Z,75.50
2018-04-02T07:52:55.302Z,73.20
2018-04-02T07:58:00.302Z,73.10
2018-04-02T08:03:04.256Z,72.20
2018-04-02T08:08:07.156Z,71.70
2018-04-02T08:13:12.936Z,70.80
2018-04-02T08:18:17.894Z,70.70
2018-04-02T08:23:24.285Z,70.60
2018-04-02T08:28:28.883Z,70.70
2018-04-02T08:33:38.771Z,70.50
2018-04-02T08:38:45.372Z,71.00
2018-04-02T08:43:49.542Z,69.80
2018-04-02T08:48:55.594Z,69.60
2018-04-02T08:54:00.342Z,69.20
2018-04-02T08:59:04.973Z,69.40
2018-04-02T09:09:18.980Z,69.40
2018-04-02T09:14:22.431Z,68.80
2018-04-02T09:19:28.596Z,69.00
2018-04-02T09:24:34.269Z,68.60
2018-04-02T09:29:41.517Z,68.00
2018-04-02T09:34:47.419Z,68.90
2018-04-02T09:40:06.328Z,69.80
2018-04-02T09:45:11.800Z,69.50
2018-04-02T09:50:18.742Z,69.10
2018-04-02T09:55:24.616Z,67.80
2018-04-02T10:00:35.224Z,66.40
2018-04-02T10:05:41.249Z,65.20
2018-04-02T10:10:44.210Z,65.50
2018-04-02T10:15:48.294Z,63.40
2018-04-02T10:26:05.982Z,62.80
2018-04-02T10:31:10.508Z,61.10
2018-04-02T10:36:13.522Z,58.30
2018-04-02T10:41:17.906Z,59.20
2018-04-02T10:46:21.892Z,57.70
2018-04-02T10:51:24.765Z,58.70
2018-04-02T10:56:29.393Z,56.80
2018-04-02T11:01:32.974Z,54.60
2018-04-02T11:06:36.837Z,59.40
2018-04-02T11:11:40.894Z,59.30
2018-04-02T11:16:44.871Z,56.40
2018-04-02T11:21:47.673Z,55.20
2018-04-02T11:26:50.601Z,58.60
2018-04-02T11:31:53.436Z,54.00
2018-04-02T11:36:56.988Z,53.20
2018-04-02T11:42:00.564Z,55.40
2018-04-02T11:47:03.660Z,55.40
2018-04-02T11:52:08.086Z,53.20
2018-04-02T11:57:16.035Z,53.60
2018-04-02T12:02:20.268Z,53.50
2018-04-02T12:07:24.963Z,52.70
2018-04-02T12:12:33.982Z,55.10
2018-04-02T12:17:37.691Z,53.30
2018-04-02T12:22:43.998Z,53.10
2018-04-02T12:27:49.541Z,51.60
2018-04-02T12:32:55.088Z,51.70
2018-04-02T12:38:01.919Z,50.30
2018-04-02T12:43:04.946Z,49.60
2018-04-02T12:48:08.576Z,49.60
2018-04-02T12:53:11.465Z,49.80
2018-04-02T12:58:16.107Z,49.80
2018-04-02T13:03:23.201Z,49.70
2018-04-02T13:08:27.699Z,50.00
2018-04-02T13:13:32.624Z,49.40
2018-04-02T13:18:35.981Z,46.70
2018-04-02T13:23:38.626Z,48.80
2018-04-02T13:28:41.157Z,46.30
2018-04-02T13:33:43.710Z,46.20
2018-04-02T13:38:47.141Z,46.80
2018-04-02T13:43:49.658Z,47.40
2018-04-02T13:48:52.190Z,47.10
2018-04-02T13:53:54.727Z,48.00
2018-04-02T13:58:57.251Z,47.80
2018-04-02T14:03:59.797Z,47.60
2018-04-02T14:09:02.419Z,43.60
2018-04-02T14:14:05.178Z,46.60
2018-04-02T14:19:07.732Z,45.70
2018-04-02T14:24:10.265Z,45.80
2018-04-02T14:29:12.821Z,44.00
2018-04-02T14:34:15.348Z,43.00
2018-04-02T14:39:18.030Z,44.80
2018-04-02T14:44:21.374Z,47.10
2018-04-02T14:49:23.914Z,47.00
2018-04-02T14:54:26.442Z,44.60
2018-04-02T14:59:29.739Z,44.30
2018-04-02T15:04:32.287Z,44.20
2018-04-02T15:09:34.893Z,46.20
2018-04-02T15:14:37.492Z,47.20
2018-04-02T15:19:40.022Z,45.00
2018-04-02T15:24:42.562Z,44.10
2018-04-02T15:29:45.086Z,45.30
2018-04-02T15:34:47.609Z,45.30
2018-04-02T15:39:50.175Z,43.80
2018-04-02T15:44:52.746Z,45.10
2018-04-02T15:49:55.279Z,44.30
2018-04-02T15:54:57.820Z,45.20
2018-04-02T16:00:00.357Z,43.80
2018-04-02T16:05:02.901Z,44.50
2018-04-02T16:10:05.446Z,45.40
2018-04-02T16:15:08.898Z,45.20
2018-04-02T16:20:11.430Z,45.10
2018-04-02T16:25:13.945Z,45.40
2018-04-02T16:30:17.238Z,46.00
2018-04-02T16:35:19.856Z,45.90
2018-04-02T16:40:22.407Z,46.00
2018-04-02T16:45:24.934Z,46.30
2018-04-02T16:50:27.471Z,44.40
2018-04-02T16:55:29.996Z,44.70
2018-04-02T17:00:32.522Z,45.00
2018-04-02T17:05:35.054Z,45.50
2018-04-02T17:10:37.611Z,46.60
2018-04-02T17:15:40.189Z,46.70
2018-04-02T17:20:42.730Z,47.20
2018-04-02T17:25:45.254Z,47.60
2018-04-02T17:30:47.785Z,47.30
2018-04-02T17:35:50.318Z,47.40
2018-04-02T17:40:52.876Z,48.40
2018-04-02T17:45:55.402Z,48.40
2018-04-02T17:50:57.929Z,48.30
2018-04-02T17:56:00.469Z,48.60
2018-04-02T18:01:03.020Z,49.10
2018-04-02T18:06:05.612Z,49.60
2018-04-02T18:11:08.181Z,50.10
2018-04-02T18:16:10.894Z,50.10
2018-04-02T18:21:13.425Z,50.60
2018-04-02T18:26:15.973Z,51.20
2018-04-02T18:31:18.494Z,51.70
2018-04-02T18:36:21.022Z,52.00
2018-04-02T18:41:23.581Z,52.10
2018-04-02T18:46:26.111Z,52.40
2018-04-02T18:51:28.638Z,53.40
2018-04-02T18:56:32.284Z,53.70
2018-04-02T19:01:37.010Z,53.70
2018-04-02T19:06:39.898Z,54.10
2018-04-02T19:16:51.796Z,54.80
2018-04-02T19:21:54.404Z,55.10
2018-04-02T19:26:57.161Z,55.40
2018-04-02T19:32:00.102Z,55.80
2018-04-02T19:37:02.911Z,56.40
2018-04-02T19:42:05.645Z,56.60
2018-04-02T19:47:08.432Z,57.20
2018-04-02T19:57:20.722Z,58.00
2018-04-02T20:02:23.508Z,58.10
2018-04-02T20:07:27.164Z,58.70
2018-04-02T20:12:29.792Z,58.60
2018-04-02T20:17:32.639Z,58.90
2018-04-02T20:22:36.392Z,58.90
2018-04-02T20:27:39.314Z,59.00
2018-04-02T20:32:42.165Z,59.00
2018-04-02T20:37:44.904Z,58.90
2018-04-02T20:42:48.855Z,59.20
2018-04-02T20:47:51.756Z,59.10
2018-04-02T20:52:54.691Z,59.30
2018-04-02T20:57:57.553Z,59.20
2018-04-02T21:03:00.543Z,59.50
2018-04-02T21:08:03.578Z,59.60
2018-04-02T21:13:08.707Z,59.50
2018-04-02T21:18:11.951Z,59.50
2018-04-02T21:23:15.072Z,59.40
2018-04-02T21:28:18.718Z,59.80
2018-04-02T21:33:21.772Z,59.40
2018-04-02T21:38:25.414Z,59.80
2018-04-02T21:43:29.125Z,59.30
2018-04-02T21:48:32.393Z,59.20
2018-04-02T21:53:38.609Z,59.20
2018-04-02T21:58:41.567Z,59.10
2018-04-02T22:03:44.639Z,59.00
2018-04-02T22:08:47.911Z,59.10
2018-04-02T22:13:51.503Z,58.90
2018-04-02T22:18:54.752Z,58.90
2018-04-02T22:23:58.564Z,59.80
2018-04-02T22:29:01.650Z,60.00
2018-04-02T22:34:04.612Z,60.10
2018-04-02T22:39:08.516Z,60.30
2018-04-02T22:44:13.364Z,60.10
2018-04-02T22:49:16.906Z,60.10
2018-04-02T22:54:19.988Z,60.30
2018-04-02T22:59:22.860Z,60.50
2018-04-02T23:04:25.930Z,60.60
2018-04-02T23:09:29.819Z,60.70
2018-04-02T23:14:33.836Z,61.00
2018-04-02T23:19:37.923Z,61.00
2018-04-02T23:24:42.759Z,61.20
2018-04-02T23:29:46.247Z,61.30
2018-04-02T23:34:49.409Z,61.30
2018-04-02T23:39:52.585Z,61.20
2018-04-02T23:44:57.642Z,61.50
2018-04-02T23:50:00.997Z,61.70
2018-04-02T23:55:03.513Z,61.60
